Aviation Digital Data Service (ADDS)

Output produced by METARs form (0257 UTC 21 April 2015)
found at http://www.aviationweather.gov/adds/metars/
 
METAR text: KSBP 210156Z 30011KT 10SM SCT020 13/09 A2986 RMK AO2 SLP111 T01330089
Conditions at: KSBP (SAN LUIS OBISPO , CA, US) observed 0156 UTC 21 April 2015
Temperature: 13.3°C (56°F)
Dewpoint: 8.9°C (48°F) [RH = 75%]
Pressure (altimeter): 29.86 inches Hg (1011.3 mb)
[Sea-level pressure: 1011.1 mb]
Winds: from the WNW (300 degrees) at 13 MPH (11 knots; 5.7 m/s)
Visibility: 10 or more miles (16+ km)
Ceiling: at least 12,000 feet AGL
Clouds: scattered clouds at 2000 feet AGL
Weather: no significant weather observed at this time

METAR text: KSBP 210056Z 31013KT 10SM SCT020 15/09 A2986 RMK AO2 SLP111 T01500089
Conditions at: KSBP (SAN LUIS OBISPO , CA, US) observed 0056 UTC 21 April 2015
Temperature: 15.0°C (59°F)
Dewpoint: 8.9°C (48°F) [RH = 67%]
Pressure (altimeter): 29.86 inches Hg (1011.3 mb)
[Sea-level pressure: 1011.1 mb]
Winds: from the NW (310 degrees) at 15 MPH (13 knots; 6.8 m/s)
Visibility: 10 or more miles (16+ km)
Ceiling: at least 12,000 feet AGL
Clouds: scattered clouds at 2000 feet AGL
Weather: no significant weather observed at this time

METAR text: KSBP 202356Z 31013KT 10SM SCT015 16/09 A2986 RMK AO2 RAE45 SLP111 P0000 60000 T01610089 10194 20150 58006
Conditions at: KSBP (SAN LUIS OBISPO , CA, US) observed 2356 UTC 20 April 2015
Temperature: 16.1°C (61°F)
Dewpoint: 8.9°C (48°F) [RH = 62%]
Pressure (altimeter): 29.86 inches Hg (1011.3 mb)
[Sea-level pressure: 1011.1 mb]
Winds: from the NW (310 degrees) at 15 MPH (13 knots; 6.8 m/s)
Visibility: 10 or more miles (16+ km)
Ceiling: at least 12,000 feet AGL
Clouds: scattered clouds at 1500 feet AGL
Weather: no significant weather observed at this time

METAR text: KSBP 202256Z 32016KT 10SM -RA CLR 17/09 A2987 RMK AO2 RAB34 SLP114 P0000 T01720089
Conditions at: KSBP (SAN LUIS OBISPO , CA, US) observed 2256 UTC 20 April 2015
Temperature: 17.2°C (63°F)
Dewpoint: 8.9°C (48°F) [RH = 58%]
Pressure (altimeter): 29.87 inches Hg (1011.6 mb)
[Sea-level pressure: 1011.4 mb]
Winds: from the NW (320 degrees) at 18 MPH (16 knots; 8.3 m/s)
Visibility: 10 or more miles (16+ km)
Ceiling: at least 12,000 feet AGL
Clouds: sky clear below 12,000 feet AGL
Weather: -RA  (light rain)

METAR text: KSBP 202156Z 31015KT 10SM FEW015 18/09 A2988 RMK AO2 SLP117 T01830089
Conditions at: KSBP (SAN LUIS OBISPO , CA, US) observed 2156 UTC 20 April 2015
Temperature: 18.3°C (65°F)
Dewpoint: 8.9°C (48°F) [RH = 54%]
Pressure (altimeter): 29.88 inches Hg (1011.9 mb)
[Sea-level pressure: 1011.7 mb]
Winds: from the NW (310 degrees) at 17 MPH (15 knots; 7.8 m/s)
Visibility: 10 or more miles (16+ km)
Ceiling: at least 12,000 feet AGL
Clouds: few clouds at 1500 feet AGL
Weather: no significant weather observed at this time

METAR text: KSBP 202056Z 31012KT 10SM CLR 18/09 A2988 RMK AO2 SLP118 T01830094 56015
Conditions at: KSBP (SAN LUIS OBISPO , CA, US) observed 2056 UTC 20 April 2015
Temperature: 18.3°C (65°F)
Dewpoint: 9.4°C (49°F) [RH = 56%]
Pressure (altimeter): 29.88 inches Hg (1011.9 mb)
[Sea-level pressure: 1011.8 mb]
Winds: from the NW (310 degrees) at 14 MPH (12 knots; 6.2 m/s)
Visibility: 10 or more miles (16+ km)
Ceiling: at least 12,000 feet AGL
Clouds: sky clear below 12,000 feet AGL
Weather: no significant weather observed at this time

METAR text: KSBP 201956Z 00000KT 10SM CLR 18/09 A2989 RMK AO2 SLP120 T01830089
Conditions at: KSBP (SAN LUIS OBISPO , CA, US) observed 1956 UTC 20 April 2015
Temperature: 18.3°C (65°F)
Dewpoint: 8.9°C (48°F) [RH = 54%]
Pressure (altimeter): 29.89 inches Hg (1012.3 mb)
[Sea-level pressure: 1012.0 mb]
Winds: calm
Visibility: 10 or more miles (16+ km)
Ceiling: at least 12,000 feet AGL
Clouds: sky clear below 12,000 feet AGL
Weather: no significant weather observed at this time